sensor_id;sensor_type;location;lat;lon;timestamp;P1;durP1;ratioP1;P2;durP2;ratioP2
23496;SDS011;11925;48.122;11.560;2023-07-13T00:04:09;5.18;;;3.33;;
23496;SDS011;11925;48.122;11.560;2023-07-13T00:06:37;4.93;;;2.60;;
23496;SDS011;11925;48.122;11.560;2023-07-13T00:09:06;4.97;;;2.67;;
23496;SDS011;11925;48.122;11.560;2023-07-13T00:11:34;5.75;;;2.53;;
23496;SDS011;11925;48.122;11.560;2023-07-13T00:14:02;3.90;;;2.40;;
23496;SDS011;11925;48.122;11.560;2023-07-13T00:16:32;4.68;;;2.85;;
23496;SDS011;11925;48.122;11.560;2023-07-13T00:19:02;5.28;;;3.10;;
23496;SDS011;11925;48.122;11.560;2023-07-13T00:21:31;4.57;;;3.08;;
23496;SDS011;11925;48.122;11.560;2023-07-13T00:24:00;5.78;;;2.85;;
23496;SDS011;11925;48.122;11.560;2023-07-13T00:26:29;5.15;;;3.13;;
23496;SDS011;11925;48.122;11.560;2023-07-13T00:28:59;5.18;;;3.00;;
23496;SDS011;11925;48.122;11.560;2023-07-13T00:31:28;4.18;;;2.75;;
23496;SDS011;11925;48.122;11.560;2023-07-13T00:33:57;4.32;;;2.67;;
23496;SDS011;11925;48.122;11.560;2023-07-13T00:36:29;3.22;;;2.40;;
23496;SDS011;11925;48.122;11.560;2023-07-13T00:38:58;4.03;;;2.70;;
23496;SDS011;11925;48.122;11.560;2023-07-13T00:41:26;5.75;;;2.92;;
23496;SDS011;11925;48.122;11.560;2023-07-13T00:43:55;3.45;;;2.50;;
23496;SDS011;11925;48.122;11.560;2023-07-13T00:46:25;4.18;;;2.78;;
23496;SDS011;11925;48.122;11.560;2023-07-13T00:48:56;6.10;;;2.72;;
23496;SDS011;11925;48.122;11.560;2023-07-13T00:51:30;5.85;;;2.70;;
23496;SDS011;11925;48.122;11.560;2023-07-13T00:54:03;4.60;;;2.95;;
23496;SDS011;11925;48.122;11.560;2023-07-13T00:56:34;5.75;;;2.85;;
23496;SDS011;11925;48.122;11.560;2023-07-13T00:59:04;6.55;;;2.65;;
23496;SDS011;11925;48.122;11.560;2023-07-13T01:01:35;4.32;;;2.45;;
23496;SDS011;11925;48.122;11.560;2023-07-13T01:04:04;4.13;;;2.75;;
23496;SDS011;11925;48.122;11.560;2023-07-13T01:06:36;6.60;;;3.13;;
23496;SDS011;11925;48.122;11.560;2023-07-13T01:09:06;5.47;;;2.97;;
23496;SDS011;11925;48.122;11.560;2023-07-13T01:11:36;3.42;;;2.50;;
23496;SDS011;11925;48.122;11.560;2023-07-13T01:14:05;5.70;;;2.80;;
23496;SDS011;11925;48.122;11.560;2023-07-13T01:16:34;3.80;;;2.67;;
23496;SDS011;11925;48.122;11.560;2023-07-13T01:19:07;4.32;;;2.78;;
23496;SDS011;11925;48.122;11.560;2023-07-13T01:21:44;3.78;;;2.70;;
23496;SDS011;11925;48.122;11.560;2023-07-13T01:24:18;3.88;;;2.47;;
23496;SDS011;11925;48.122;11.560;2023-07-13T01:26:48;5.13;;;2.65;;
23496;SDS011;11925;48.122;11.560;2023-07-13T01:29:16;5.25;;;2.88;;
23496;SDS011;11925;48.122;11.560;2023-07-13T01:31:45;3.95;;;2.40;;
23496;SDS011;11925;48.122;11.560;2023-07-13T01:34:13;4.63;;;2.60;;
23496;SDS011;11925;48.122;11.560;2023-07-13T01:36:42;3.20;;;2.00;;
23496;SDS011;11925;48.122;11.560;2023-07-13T01:39:12;3.90;;;2.30;;
23496;SDS011;11925;48.122;11.560;2023-07-13T01:41:41;5.50;;;2.58;;
23496;SDS011;11925;48.122;11.560;2023-07-13T01:44:09;5.30;;;2.33;;
23496;SDS011;11925;48.122;11.560;2023-07-13T01:46:37;4.22;;;2.10;;
23496;SDS011;11925;48.122;11.560;2023-07-13T01:49:06;3.22;;;2.20;;
23496;SDS011;11925;48.122;11.560;2023-07-13T01:51:34;4.38;;;2.35;;
23496;SDS011;11925;48.122;11.560;2023-07-13T01:54:04;3.80;;;2.38;;
23496;SDS011;11925;48.122;11.560;2023-07-13T01:56:33;5.18;;;2.13;;
23496;SDS011;11925;48.122;11.560;2023-07-13T01:59:01;4.40;;;2.40;;
23496;SDS011;11925;48.122;11.560;2023-07-13T02:01:29;3.58;;;2.30;;
23496;SDS011;11925;48.122;11.560;2023-07-13T02:03:58;3.90;;;1.90;;
23496;SDS011;11925;48.122;11.560;2023-07-13T02:06:27;3.67;;;2.38;;
23496;SDS011;11925;48.122;11.560;2023-07-13T02:08:57;4.18;;;2.40;;
23496;SDS011;11925;48.122;11.560;2023-07-13T02:11:27;3.83;;;2.25;;
23496;SDS011;11925;48.122;11.560;2023-07-13T02:13:59;5.05;;;2.35;;
23496;SDS011;11925;48.122;11.560;2023-07-13T02:16:28;3.58;;;2.55;;
23496;SDS011;11925;48.122;11.560;2023-07-13T02:18:57;4.88;;;2.55;;
23496;SDS011;11925;48.122;11.560;2023-07-13T02:21:27;5.95;;;2.35;;
23496;SDS011;11925;48.122;11.560;2023-07-13T02:23:55;3.88;;;2.55;;
23496;SDS011;11925;48.122;11.560;2023-07-13T02:26:24;5.00;;;2.60;;
23496;SDS011;11925;48.122;11.560;2023-07-13T02:28:54;3.33;;;2.40;;
23496;SDS011;11925;48.122;11.560;2023-07-13T02:31:22;5.45;;;2.60;;
23496;SDS011;11925;48.122;11.560;2023-07-13T02:33:52;7.97;;;2.92;;
23496;SDS011;11925;48.122;11.560;2023-07-13T02:36:21;3.58;;;2.40;;
23496;SDS011;11925;48.122;11.560;2023-07-13T02:38:49;3.60;;;2.45;;
23496;SDS011;11925;48.122;11.560;2023-07-13T02:41:18;2.92;;;2.47;;
23496;SDS011;11925;48.122;11.560;2023-07-13T02:43:46;5.90;;;2.75;;
23496;SDS011;11925;48.122;11.560;2023-07-13T02:46:16;3.38;;;2.53;;
23496;SDS011;11925;48.122;11.560;2023-07-13T02:48:46;6.13;;;3.00;;
23496;SDS011;11925;48.122;11.560;2023-07-13T02:51:14;7.25;;;2.75;;
23496;SDS011;11925;48.122;11.560;2023-07-13T02:53:42;6.05;;;3.20;;
23496;SDS011;11925;48.122;11.560;2023-07-13T02:56:10;8.07;;;3.65;;
23496;SDS011;11925;48.122;11.560;2023-07-13T02:58:43;6.22;;;3.10;;
23496;SDS011;11925;48.122;11.560;2023-07-13T03:01:11;6.57;;;3.95;;
23496;SDS011;11925;48.122;11.560;2023-07-13T03:03:41;8.30;;;4.28;;
23496;SDS011;11925;48.122;11.560;2023-07-13T03:06:09;11.68;;;5.00;;
23496;SDS011;11925;48.122;11.560;2023-07-13T03:08:45;8.95;;;3.95;;
23496;SDS011;11925;48.122;11.560;2023-07-13T03:11:16;6.75;;;3.83;;
23496;SDS011;11925;48.122;11.560;2023-07-13T03:13:55;8.40;;;3.72;;
23496;SDS011;11925;48.122;11.560;2023-07-13T03:16:24;5.78;;;3.03;;
23496;SDS011;11925;48.122;11.560;2023-07-13T03:18:54;7.07;;;3.55;;
23496;SDS011;11925;48.122;11.560;2023-07-13T03:21:23;7.45;;;3.35;;
23496;SDS011;11925;48.122;11.560;2023-07-13T03:23:51;10.00;;;3.63;;
23496;SDS011;11925;48.122;11.560;2023-07-13T03:26:20;6.82;;;3.13;;
23496;SDS011;11925;48.122;11.560;2023-07-13T03:28:48;7.55;;;2.92;;
23496;SDS011;11925;48.122;11.560;2023-07-13T03:31:24;5.55;;;2.90;;
23496;SDS011;11925;48.122;11.560;2023-07-13T03:33:57;6.28;;;3.28;;
23496;SDS011;11925;48.122;11.560;2023-07-13T03:36:27;7.38;;;3.08;;
23496;SDS011;11925;48.122;11.560;2023-07-13T03:39:00;6.60;;;2.85;;
23496;SDS011;11925;48.122;11.560;2023-07-13T03:41:36;7.05;;;3.15;;
23496;SDS011;11925;48.122;11.560;2023-07-13T03:44:05;6.28;;;3.22;;
23496;SDS011;11925;48.122;11.560;2023-07-13T03:46:33;6.45;;;2.90;;
23496;SDS011;11925;48.122;11.560;2023-07-13T03:49:03;5.68;;;3.40;;
23496;SDS011;11925;48.122;11.560;2023-07-13T03:51:32;5.30;;;2.78;;
23496;SDS011;11925;48.122;11.560;2023-07-13T03:54:00;5.15;;;2.97;;
23496;SDS011;11925;48.122;11.560;2023-07-13T03:56:29;4.45;;;2.83;;
23496;SDS011;11925;48.122;11.560;2023-07-13T03:59:01;4.82;;;2.78;;
23496;SDS011;11925;48.122;11.560;2023-07-13T04:01:30;5.35;;;3.13;;
23496;SDS011;11925;48.122;11.560;2023-07-13T04:03:58;5.85;;;3.25;;
23496;SDS011;11925;48.122;11.560;2023-07-13T04:06:31;6.70;;;3.13;;
23496;SDS011;11925;48.122;11.560;2023-07-13T04:09:00;4.38;;;2.80;;
23496;SDS011;11925;48.122;11.560;2023-07-13T04:11:32;6.22;;;3.17;;
23496;SDS011;11925;48.122;11.560;2023-07-13T04:14:03;6.22;;;3.33;;
23496;SDS011;11925;48.122;11.560;2023-07-13T04:16:33;7.70;;;3.30;;
23496;SDS011;11925;48.122;11.560;2023-07-13T04:19:01;4.30;;;2.80;;
23496;SDS011;11925;48.122;11.560;2023-07-13T04:21:30;5.00;;;3.05;;
23496;SDS011;11925;48.122;11.560;2023-07-13T04:24:00;5.90;;;3.30;;
23496;SDS011;11925;48.122;11.560;2023-07-13T04:26:29;6.07;;;3.55;;
23496;SDS011;11925;48.122;11.560;2023-07-13T04:28:58;5.65;;;3.50;;
23496;SDS011;11925;48.122;11.560;2023-07-13T04:31:26;5.60;;;3.28;;
23496;SDS011;11925;48.122;11.560;2023-07-13T04:33:55;4.85;;;3.08;;
23496;SDS011;11925;48.122;11.560;2023-07-13T04:36:23;4.28;;;2.70;;
23496;SDS011;11925;48.122;11.560;2023-07-13T04:38:54;4.35;;;3.13;;
23496;SDS011;11925;48.122;11.560;2023-07-13T04:41:23;4.63;;;2.60;;
23496;SDS011;11925;48.122;11.560;2023-07-13T04:43:51;5.78;;;2.83;;
23496;SDS011;11925;48.122;11.560;2023-07-13T04:46:22;6.32;;;2.88;;
23496;SDS011;11925;48.122;11.560;2023-07-13T04:48:51;4.28;;;2.35;;
23496;SDS011;11925;48.122;11.560;2023-07-13T04:51:20;3.72;;;2.80;;
23496;SDS011;11925;48.122;11.560;2023-07-13T04:53:48;4.53;;;2.53;;
23496;SDS011;11925;48.122;11.560;2023-07-13T04:56:25;5.90;;;2.58;;
23496;SDS011;11925;48.122;11.560;2023-07-13T04:58:53;4.05;;;2.17;;
23496;SDS011;11925;48.122;11.560;2023-07-13T05:01:21;5.65;;;2.60;;
23496;SDS011;11925;48.122;11.560;2023-07-13T05:03:50;4.68;;;2.35;;
23496;SDS011;11925;48.122;11.560;2023-07-13T05:06:18;3.97;;;2.50;;
23496;SDS011;11925;48.122;11.560;2023-07-13T05:08:46;4.40;;;2.17;;
23496;SDS011;11925;48.122;11.560;2023-07-13T05:11:15;4.82;;;2.47;;
23496;SDS011;11925;48.122;11.560;2023-07-13T05:13:44;5.35;;;2.45;;
23496;SDS011;11925;48.122;11.560;2023-07-13T05:16:13;6.07;;;2.67;;
23496;SDS011;11925;48.122;11.560;2023-07-13T05:18:41;5.07;;;2.80;;
23496;SDS011;11925;48.122;11.560;2023-07-13T05:21:10;6.75;;;3.40;;
23496;SDS011;11925;48.122;11.560;2023-07-13T05:23:39;7.40;;;3.20;;
23496;SDS011;11925;48.122;11.560;2023-07-13T05:26:09;5.88;;;3.08;;
23496;SDS011;11925;48.122;11.560;2023-07-13T05:28:38;6.38;;;3.13;;
23496;SDS011;11925;48.122;11.560;2023-07-13T05:31:08;4.88;;;3.00;;
23496;SDS011;11925;48.122;11.560;2023-07-13T05:33:38;6.65;;;3.22;;
23496;SDS011;11925;48.122;11.560;2023-07-13T05:36:06;5.55;;;3.38;;
23496;SDS011;11925;48.122;11.560;2023-07-13T05:38:35;7.35;;;3.45;;
23496;SDS011;11925;48.122;11.560;2023-07-13T05:41:03;6.28;;;3.30;;
23496;SDS011;11925;48.122;11.560;2023-07-13T05:43:32;5.97;;;3.25;;
23496;SDS011;11925;48.122;11.560;2023-07-13T05:46:00;5.68;;;2.90;;
23496;SDS011;11925;48.122;11.560;2023-07-13T05:48:30;4.68;;;2.58;;
23496;SDS011;11925;48.122;11.560;2023-07-13T05:50:58;3.83;;;2.35;;
23496;SDS011;11925;48.122;11.560;2023-07-13T05:53:28;4.07;;;2.50;;
23496;SDS011;11925;48.122;11.560;2023-07-13T05:55:55;5.22;;;2.78;;
23496;SDS011;11925;48.122;11.560;2023-07-13T05:58:27;6.35;;;3.15;;
23496;SDS011;11925;48.122;11.560;2023-07-13T06:00:59;4.03;;;2.40;;
23496;SDS011;11925;48.122;11.560;2023-07-13T06:03:31;6.32;;;2.42;;
23496;SDS011;11925;48.122;11.560;2023-07-13T06:06:00;3.53;;;2.00;;
23496;SDS011;11925;48.122;11.560;2023-07-13T06:08:28;4.68;;;3.00;;
23496;SDS011;11925;48.122;11.560;2023-07-13T06:11:01;5.43;;;2.83;;
23496;SDS011;11925;48.122;11.560;2023-07-13T06:13:30;3.80;;;2.20;;
23496;SDS011;11925;48.122;11.560;2023-07-13T06:15:59;6.95;;;2.70;;
23496;SDS011;11925;48.122;11.560;2023-07-13T06:18:32;6.72;;;3.10;;
23496;SDS011;11925;48.122;11.560;2023-07-13T06:21:01;5.32;;;2.28;;
23496;SDS011;11925;48.122;11.560;2023-07-13T06:23:33;4.47;;;2.63;;
23496;SDS011;11925;48.122;11.560;2023-07-13T06:26:01;4.47;;;2.65;;
23496;SDS011;11925;48.122;11.560;2023-07-13T06:28:29;4.47;;;2.45;;
23496;SDS011;11925;48.122;11.560;2023-07-13T06:30:59;5.85;;;2.83;;
23496;SDS011;11925;48.122;11.560;2023-07-13T06:33:27;5.63;;;2.42;;
23496;SDS011;11925;48.122;11.560;2023-07-13T06:35:57;8.35;;;2.75;;
23496;SDS011;11925;48.122;11.560;2023-07-13T06:38:26;6.05;;;2.72;;
23496;SDS011;11925;48.122;11.560;2023-07-13T06:40:54;3.13;;;2.35;;
23496;SDS011;11925;48.122;11.560;2023-07-13T06:43:22;5.05;;;2.40;;
23496;SDS011;11925;48.122;11.560;2023-07-13T06:45:54;5.53;;;2.65;;
23496;SDS011;11925;48.122;11.560;2023-07-13T06:48:22;4.53;;;2.53;;
23496;SDS011;11925;48.122;11.560;2023-07-13T06:50:51;6.00;;;2.40;;
23496;SDS011;11925;48.122;11.560;2023-07-13T06:53:21;5.75;;;2.70;;
23496;SDS011;11925;48.122;11.560;2023-07-13T06:55:50;5.15;;;2.58;;
23496;SDS011;11925;48.122;11.560;2023-07-13T06:58:18;4.90;;;2.75;;
23496;SDS011;11925;48.122;11.560;2023-07-13T07:00:49;6.57;;;2.47;;
23496;SDS011;11925;48.122;11.560;2023-07-13T07:03:19;3.92;;;2.40;;
23496;SDS011;11925;48.122;11.560;2023-07-13T07:05:47;4.90;;;2.45;;
23496;SDS011;11925;48.122;11.560;2023-07-13T07:08:16;7.47;;;2.53;;
23496;SDS011;11925;48.122;11.560;2023-07-13T07:10:45;6.13;;;2.67;;
23496;SDS011;11925;48.122;11.560;2023-07-13T07:13:17;7.03;;;2.10;;
23496;SDS011;11925;48.122;11.560;2023-07-13T07:15:46;4.97;;;2.72;;
23496;SDS011;11925;48.122;11.560;2023-07-13T07:18:15;4.05;;;2.13;;
23496;SDS011;11925;48.122;11.560;2023-07-13T07:20:43;4.50;;;2.40;;
23496;SDS011;11925;48.122;11.560;2023-07-13T07:23:12;22.17;;;12.82;;
23496;SDS011;11925;48.122;11.560;2023-07-13T07:25:42;16.30;;;10.05;;
23496;SDS011;11925;48.122;11.560;2023-07-13T07:28:12;27.73;;;15.73;;
23496;SDS011;11925;48.122;11.560;2023-07-13T07:31:01;18.40;;;10.38;;
23496;SDS011;11925;48.122;11.560;2023-07-13T07:36:04;13.77;;;6.25;;
23496;SDS011;11925;48.122;11.560;2023-07-13T07:41:04;7.32;;;3.80;;
23496;SDS011;11925;48.122;11.560;2023-07-13T07:43:37;7.88;;;3.88;;
23496;SDS011;11925;48.122;11.560;2023-07-13T07:46:05;5.85;;;3.28;;
23496;SDS011;11925;48.122;11.560;2023-07-13T07:48:34;4.05;;;2.45;;
23496;SDS011;11925;48.122;11.560;2023-07-13T07:51:02;6.63;;;2.95;;
23496;SDS011;11925;48.122;11.560;2023-07-13T07:53:30;5.30;;;2.30;;
23496;SDS011;11925;48.122;11.560;2023-07-13T07:56:00;6.00;;;2.63;;
23496;SDS011;11925;48.122;11.560;2023-07-13T07:58:49;5.30;;;3.08;;
23496;SDS011;11925;48.122;11.560;2023-07-13T08:01:20;5.53;;;2.78;;
23496;SDS011;11925;48.122;11.560;2023-07-13T08:03:52;4.20;;;2.47;;
23496;SDS011;11925;48.122;11.560;2023-07-13T08:06:23;5.30;;;2.55;;
23496;SDS011;11925;48.122;11.560;2023-07-13T08:08:55;9.10;;;3.15;;
23496;SDS011;11925;48.122;11.560;2023-07-13T08:11:23;7.28;;;2.95;;
23496;SDS011;11925;48.122;11.560;2023-07-13T08:13:56;5.00;;;2.90;;
23496;SDS011;11925;48.122;11.560;2023-07-13T08:16:24;4.10;;;2.30;;
23496;SDS011;11925;48.122;11.560;2023-07-13T08:18:53;5.47;;;2.33;;
23496;SDS011;11925;48.122;11.560;2023-07-13T08:21:22;6.57;;;2.80;;
23496;SDS011;11925;48.122;11.560;2023-07-13T08:23:50;4.88;;;2.38;;
23496;SDS011;11925;48.122;11.560;2023-07-13T08:26:19;3.75;;;2.33;;
23496;SDS011;11925;48.122;11.560;2023-07-13T08:31:52;6.30;;;2.20;;
23496;SDS011;11925;48.122;11.560;2023-07-13T08:34:20;4.07;;;2.35;;
23496;SDS011;11925;48.122;11.560;2023-07-13T08:36:49;3.40;;;1.75;;
23496;SDS011;11925;48.122;11.560;2023-07-13T08:39:17;4.15;;;2.20;;
23496;SDS011;11925;48.122;11.560;2023-07-13T08:41:45;3.33;;;2.15;;
23496;SDS011;11925;48.122;11.560;2023-07-13T08:46:47;4.47;;;2.50;;
23496;SDS011;11925;48.122;11.560;2023-07-13T08:54:24;4.22;;;2.17;;
23496;SDS011;11925;48.122;11.560;2023-07-13T08:56:56;6.32;;;2.58;;
23496;SDS011;11925;48.122;11.560;2023-07-13T08:59:27;4.60;;;2.15;;
23496;SDS011;11925;48.122;11.560;2023-07-13T09:02:04;5.10;;;2.10;;
23496;SDS011;11925;48.122;11.560;2023-07-13T09:04:47;4.57;;;2.38;;
23496;SDS011;11925;48.122;11.560;2023-07-13T09:07:21;4.38;;;2.50;;
23496;SDS011;11925;48.122;11.560;2023-07-13T09:10:08;5.60;;;2.10;;
23496;SDS011;11925;48.122;11.560;2023-07-13T09:15:17;4.68;;;2.22;;
23496;SDS011;11925;48.122;11.560;2023-07-13T09:17:52;3.77;;;1.83;;
23496;SDS011;11925;48.122;11.560;2023-07-13T09:20:23;4.05;;;1.90;;
23496;SDS011;11925;48.122;11.560;2023-07-13T09:22:53;6.68;;;2.20;;
23496;SDS011;11925;48.122;11.560;2023-07-13T09:25:26;4.18;;;2.38;;
23496;SDS011;11925;48.122;11.560;2023-07-13T09:27:58;7.97;;;2.00;;
23496;SDS011;11925;48.122;11.560;2023-07-13T09:30:30;4.45;;;1.80;;
23496;SDS011;11925;48.122;11.560;2023-07-13T09:33:01;4.13;;;1.90;;
23496;SDS011;11925;48.122;11.560;2023-07-13T09:35:30;6.60;;;2.10;;
23496;SDS011;11925;48.122;11.560;2023-07-13T09:38:01;6.43;;;1.90;;
23496;SDS011;11925;48.122;11.560;2023-07-13T09:40:38;5.68;;;2.38;;
23496;SDS011;11925;48.122;11.560;2023-07-13T09:43:10;4.05;;;1.60;;
23496;SDS011;11925;48.122;11.560;2023-07-13T09:45:39;5.38;;;1.60;;
23496;SDS011;11925;48.122;11.560;2023-07-13T09:48:10;7.53;;;1.95;;
23496;SDS011;11925;48.122;11.560;2023-07-13T09:50:40;8.40;;;1.75;;
23496;SDS011;11925;48.122;11.560;2023-07-13T09:53:11;4.25;;;2.13;;
23496;SDS011;11925;48.122;11.560;2023-07-13T09:55:42;4.88;;;1.98;;
23496;SDS011;11925;48.122;11.560;2023-07-13T09:58:11;5.20;;;2.40;;
23496;SDS011;11925;48.122;11.560;2023-07-13T10:00:41;6.25;;;1.90;;
23496;SDS011;11925;48.122;11.560;2023-07-13T10:03:16;5.07;;;1.98;;
23496;SDS011;11925;48.122;11.560;2023-07-13T10:05:45;5.53;;;2.22;;
23496;SDS011;11925;48.122;11.560;2023-07-13T10:08:17;4.65;;;1.90;;
23496;SDS011;11925;48.122;11.560;2023-07-13T10:10:47;6.85;;;2.30;;
23496;SDS011;11925;48.122;11.560;2023-07-13T10:13:25;5.85;;;2.50;;
23496;SDS011;11925;48.122;11.560;2023-07-13T10:15:54;6.43;;;2.17;;
23496;SDS011;11925;48.122;11.560;2023-07-13T10:18:24;3.42;;;1.92;;
23496;SDS011;11925;48.122;11.560;2023-07-13T10:20:54;5.85;;;2.20;;
23496;SDS011;11925;48.122;11.560;2023-07-13T10:23:48;5.05;;;2.10;;
23496;SDS011;11925;48.122;11.560;2023-07-13T10:26:19;4.68;;;2.13;;
23496;SDS011;11925;48.122;11.560;2023-07-13T10:28:51;4.63;;;2.90;;
23496;SDS011;11925;48.122;11.560;2023-07-13T10:31:21;7.35;;;3.05;;
23496;SDS011;11925;48.122;11.560;2023-07-13T10:33:51;3.30;;;2.47;;
23496;SDS011;11925;48.122;11.560;2023-07-13T10:36:23;4.10;;;2.15;;
23496;SDS011;11925;48.122;11.560;2023-07-13T10:38:52;5.15;;;1.95;;
23496;SDS011;11925;48.122;11.560;2023-07-13T10:41:23;4.75;;;2.33;;
23496;SDS011;11925;48.122;11.560;2023-07-13T10:43:54;5.50;;;2.33;;
23496;SDS011;11925;48.122;11.560;2023-07-13T10:46:24;4.72;;;2.10;;
23496;SDS011;11925;48.122;11.560;2023-07-13T10:48:55;5.30;;;1.95;;
23496;SDS011;11925;48.122;11.560;2023-07-13T10:51:25;3.97;;;2.15;;
23496;SDS011;11925;48.122;11.560;2023-07-13T10:56:48;3.65;;;1.70;;
23496;SDS011;11925;48.122;11.560;2023-07-13T10:59:18;3.22;;;1.55;;
23496;SDS011;11925;48.122;11.560;2023-07-13T11:01:52;6.05;;;2.15;;
23496;SDS011;11925;48.122;11.560;2023-07-13T11:04:23;2.53;;;1.50;;
23496;SDS011;11925;48.122;11.560;2023-07-13T11:06:53;3.70;;;1.70;;
23496;SDS011;11925;48.122;11.560;2023-07-13T11:09:34;5.85;;;1.85;;
23496;SDS011;11925;48.122;11.560;2023-07-13T11:12:09;3.78;;;1.77;;
23496;SDS011;11925;48.122;11.560;2023-07-13T11:14:42;3.20;;;1.60;;
23496;SDS011;11925;48.122;11.560;2023-07-13T11:17:24;4.03;;;1.70;;
23496;SDS011;11925;48.122;11.560;2023-07-13T11:22:23;3.33;;;1.48;;
23496;SDS011;11925;48.122;11.560;2023-07-13T11:25:02;5.85;;;2.08;;
23496;SDS011;11925;48.122;11.560;2023-07-13T11:27:51;5.25;;;2.20;;
23496;SDS011;11925;48.122;11.560;2023-07-13T11:30:22;4.63;;;2.00;;
23496;SDS011;11925;48.122;11.560;2023-07-13T11:32:52;4.95;;;2.00;;
23496;SDS011;11925;48.122;11.560;2023-07-13T11:35:33;3.60;;;1.80;;
23496;SDS011;11925;48.122;11.560;2023-07-13T11:38:02;4.57;;;1.85;;
23496;SDS011;11925;48.122;11.560;2023-07-13T11:40:31;5.05;;;2.38;;
23496;SDS011;11925;48.122;11.560;2023-07-13T11:43:01;4.20;;;2.05;;
23496;SDS011;11925;48.122;11.560;2023-07-13T11:45:30;2.75;;;1.90;;
23496;SDS011;11925;48.122;11.560;2023-07-13T11:48:23;6.03;;;2.17;;
23496;SDS011;11925;48.122;11.560;2023-07-13T11:50:54;3.50;;;2.08;;
23496;SDS011;11925;48.122;11.560;2023-07-13T11:53:26;5.80;;;2.20;;
23496;SDS011;11925;48.122;11.560;2023-07-13T11:55:56;4.70;;;1.92;;
23496;SDS011;11925;48.122;11.560;2023-07-13T11:58:28;3.72;;;1.70;;
23496;SDS011;11925;48.122;11.560;2023-07-13T12:00:58;5.38;;;1.85;;
23496;SDS011;11925;48.122;11.560;2023-07-13T12:03:28;4.93;;;1.88;;
23496;SDS011;11925;48.122;11.560;2023-07-13T12:05:58;3.95;;;1.63;;
23496;SDS011;11925;48.122;11.560;2023-07-13T12:08:28;3.60;;;1.67;;
23496;SDS011;11925;48.122;11.560;2023-07-13T12:10:59;4.38;;;1.63;;
23496;SDS011;11925;48.122;11.560;2023-07-13T12:13:36;4.25;;;1.33;;
23496;SDS011;11925;48.122;11.560;2023-07-13T12:16:15;3.17;;;1.60;;
23496;SDS011;11925;48.122;11.560;2023-07-13T12:18:51;2.60;;;1.77;;
23496;SDS011;11925;48.122;11.560;2023-07-13T12:21:22;3.72;;;1.65;;
23496;SDS011;11925;48.122;11.560;2023-07-13T12:23:56;4.03;;;1.50;;
23496;SDS011;11925;48.122;11.560;2023-07-13T12:26:24;6.43;;;3.10;;
23496;SDS011;11925;48.122;11.560;2023-07-13T12:28:54;4.82;;;2.40;;
23496;SDS011;11925;48.122;11.560;2023-07-13T12:31:26;5.82;;;2.60;;
23496;SDS011;11925;48.122;11.560;2023-07-13T12:33:59;3.80;;;2.65;;
23496;SDS011;11925;48.122;11.560;2023-07-13T12:36:30;4.53;;;2.93;;
23496;SDS011;11925;48.122;11.560;2023-07-13T12:39:02;5.18;;;3.35;;
23496;SDS011;11925;48.122;11.560;2023-07-13T12:41:35;2.97;;;2.20;;
23496;SDS011;11925;48.122;11.560;2023-07-13T12:44:07;4.82;;;1.90;;
23496;SDS011;11925;48.122;11.560;2023-07-13T12:46:39;3.45;;;2.38;;
23496;SDS011;11925;48.122;11.560;2023-07-13T12:49:20;4.63;;;2.08;;
23496;SDS011;11925;48.122;11.560;2023-07-13T12:51:55;4.25;;;1.98;;
23496;SDS011;11925;48.122;11.560;2023-07-13T12:54:26;4.10;;;2.03;;
23496;SDS011;11925;48.122;11.560;2023-07-13T12:56:56;3.75;;;2.10;;
23496;SDS011;11925;48.122;11.560;2023-07-13T12:59:31;5.15;;;1.88;;
23496;SDS011;11925;48.122;11.560;2023-07-13T13:02:09;4.35;;;1.77;;
23496;SDS011;11925;48.122;11.560;2023-07-13T13:04:52;4.38;;;2.20;;
23496;SDS011;11925;48.122;11.560;2023-07-13T13:07:23;2.33;;;1.58;;
23496;SDS011;11925;48.122;11.560;2023-07-13T13:09:52;4.32;;;2.05;;
23496;SDS011;11925;48.122;11.560;2023-07-13T13:12:21;3.53;;;1.83;;
23496;SDS011;11925;48.122;11.560;2023-07-13T13:14:52;2.95;;;1.70;;
23496;SDS011;11925;48.122;11.560;2023-07-13T13:17:21;3.80;;;1.98;;
23496;SDS011;11925;48.122;11.560;2023-07-13T13:19:53;2.88;;;1.75;;
23496;SDS011;11925;48.122;11.560;2023-07-13T13:22:22;2.03;;;1.67;;
23496;SDS011;11925;48.122;11.560;2023-07-13T13:24:50;3.50;;;1.77;;
23496;SDS011;11925;48.122;11.560;2023-07-13T13:27:19;5.47;;;1.90;;
23496;SDS011;11925;48.122;11.560;2023-07-13T13:29:49;3.33;;;1.50;;
23496;SDS011;11925;48.122;11.560;2023-07-13T13:32:20;1.93;;;1.30;;
23496;SDS011;11925;48.122;11.560;2023-07-13T13:34:48;2.97;;;1.60;;
23496;SDS011;11925;48.122;11.560;2023-07-13T13:37:18;4.50;;;1.65;;
23496;SDS011;11925;48.122;11.560;2023-07-13T13:39:49;2.72;;;1.77;;
23496;SDS011;11925;48.122;11.560;2023-07-13T13:42:34;4.55;;;1.90;;
23496;SDS011;11925;48.122;11.560;2023-07-13T13:45:05;3.45;;;1.60;;
23496;SDS011;11925;48.122;11.560;2023-07-13T13:47:34;4.00;;;1.85;;
23496;SDS011;11925;48.122;11.560;2023-07-13T13:50:10;4.07;;;2.10;;
23496;SDS011;11925;48.122;11.560;2023-07-13T13:52:41;3.35;;;1.52;;
23496;SDS011;11925;48.122;11.560;2023-07-13T13:55:13;2.95;;;1.75;;
23496;SDS011;11925;48.122;11.560;2023-07-13T14:00:12;3.28;;;2.10;;
23496;SDS011;11925;48.122;11.560;2023-07-13T14:02:44;2.67;;;1.85;;
23496;SDS011;11925;48.122;11.560;2023-07-13T14:05:18;5.13;;;2.30;;
23496;SDS011;11925;48.122;11.560;2023-07-13T14:07:52;3.80;;;2.40;;
23496;SDS011;11925;48.122;11.560;2023-07-13T14:10:21;3.70;;;1.92;;
23496;SDS011;11925;48.122;11.560;2023-07-13T14:12:51;4.05;;;1.75;;
23496;SDS011;11925;48.122;11.560;2023-07-13T14:15:25;4.07;;;1.90;;
23496;SDS011;11925;48.122;11.560;2023-07-13T14:17:54;7.15;;;1.55;;
23496;SDS011;11925;48.122;11.560;2023-07-13T14:20:24;6.13;;;2.25;;
23496;SDS011;11925;48.122;11.560;2023-07-13T14:22:53;152.60;;;92.05;;
23496;SDS011;11925;48.122;11.560;2023-07-13T14:25:21;133.50;;;84.88;;
23496;SDS011;11925;48.122;11.560;2023-07-13T14:27:51;251.48;;;136.15;;
23496;SDS011;11925;48.122;11.560;2023-07-13T14:30:26;219.90;;;125.88;;
23496;SDS011;11925;48.122;11.560;2023-07-13T14:32:55;206.73;;;121.25;;
23496;SDS011;11925;48.122;11.560;2023-07-13T14:35:23;261.52;;;147.23;;
23496;SDS011;11925;48.122;11.560;2023-07-13T14:37:51;194.50;;;114.40;;
23496;SDS011;11925;48.122;11.560;2023-07-13T14:40:21;176.55;;;102.68;;
23496;SDS011;11925;48.122;11.560;2023-07-13T14:42:53;148.13;;;83.22;;
23496;SDS011;11925;48.122;11.560;2023-07-13T14:45:21;106.50;;;58.42;;
23496;SDS011;11925;48.122;11.560;2023-07-13T14:47:52;59.28;;;34.20;;
23496;SDS011;11925;48.122;11.560;2023-07-13T14:50:22;55.70;;;32.83;;
23496;SDS011;11925;48.122;11.560;2023-07-13T14:52:56;44.10;;;23.38;;
23496;SDS011;11925;48.122;11.560;2023-07-13T14:55:24;65.35;;;35.95;;
23496;SDS011;11925;48.122;11.560;2023-07-13T14:57:53;28.77;;;16.33;;
23496;SDS011;11925;48.122;11.560;2023-07-13T15:00:24;30.65;;;17.95;;
23496;SDS011;11925;48.122;11.560;2023-07-13T15:02:55;19.88;;;12.00;;
23496;SDS011;11925;48.122;11.560;2023-07-13T15:05:26;25.00;;;14.35;;
23496;SDS011;11925;48.122;11.560;2023-07-13T15:07:57;24.85;;;14.07;;
23496;SDS011;11925;48.122;11.560;2023-07-13T15:10:27;13.95;;;8.70;;
23496;SDS011;11925;48.122;11.560;2023-07-13T15:12:58;18.50;;;9.82;;
23496;SDS011;11925;48.122;11.560;2023-07-13T15:15:28;14.20;;;8.32;;
23496;SDS011;11925;48.122;11.560;2023-07-13T15:18:00;14.15;;;7.68;;
23496;SDS011;11925;48.122;11.560;2023-07-13T15:20:30;15.45;;;9.18;;